Flight Track Log - Related Links

Times and Time Zones

All times are in EDT time to prevent confusion due to time zone crossing. See the N87ER flight status page for this flight to view local times or setup timezone preferences in your user account.

Time Position Orientation Groundspeed Altitude Reporting Facility
EDT Latitude Longitude Course Direction KTS MPH feet Rate Location/Type
Sat 02:06:55 PM 41.5147 -81.6944 338° Northwest 79 91 1,100  Level Cleveland Center
Sat 02:07:56 PM 41.5367 -81.7064 338° Northwest 110 127 2,100 896 Climbing Cleveland Center
Sat 02:08:02 PM 41.5381 -81.7053 31° Northeast 101 116 2,100 1,000 Level Cleveland Center
Sat 02:08:56 PM 41.5436 -81.7214 295° West 59 68 3,100 968 Climbing Cleveland Center
Sat 02:09:04 PM 41.5394 -81.7186 153° Southeast 82 94 3,100 696 Level Cleveland Center
Sat 02:10:05 PM 41.5253 -81.7333 218° Southwest 69 79 3,900 780 Climbing Cleveland Center
Sat 02:11:07 PM 41.5103 -81.7478 216° Southwest 66 76 4,700 743 Climbing Cleveland Center
Sat 02:11:58 PM 41.4956 -81.7667 224° Southwest 79 91 5,300 677 Climbing Cleveland Center
Sat 02:12:09 PM 41.4936 -81.7656 157° South 71 82 5,400 904 Climbing Cleveland Center
Sat 02:13:11 PM 41.4758 -81.7836 217° Southwest 77 89 6,400 927 Climbing Cleveland Center
Sat 02:13:59 PM 41.4631 -81.8006 225° Southwest 69 79 7,100 689 Climbing Cleveland Center
Sat 02:14:12 PM 41.4608 -81.7997 164° South 73 84 7,100 492 Level Cleveland Center
Sat 02:15:00 PM 41.4492 -81.8150 224° Southwest 65 75 7,600 581 Climbing Cleveland Center
Sat 02:15:14 PM 41.4456 -81.8136 164° South 67 77 7,700 492 Climbing Cleveland Center
Sat 02:16:01 PM 41.4350 -81.8294 228° Southwest 66 76 8,100 387 Climbing Cleveland Center
Sat 02:16:16 PM 41.4314 -81.8297 183° South 66 76 8,100  Level Cleveland Center
Sat 02:17:01 PM 41.4167 -81.8489 224° Southwest 80 92 8,100  Level Cleveland Center
Sat 02:17:18 PM 41.4092 -81.8539 207° Southwest 86 99 8,100  Level Cleveland Center
Sat 02:18:02 PM 41.3911 -81.8725 218° Southwest 119 137 8,100  Level Cleveland Center
Sat 02:18:20 PM 41.3842 -81.8781 211° Southwest 105 121 8,100  Level Cleveland Center
Sat 02:19:02 PM 41.3658 -81.8964 217° Southwest 111 128 8,100  Level Cleveland Center
Sat 02:19:22 PM 41.3589 -81.8992 197° South 108 124 8,100  Level Cleveland Center
Sat 02:20:03 PM 41.3431 -81.9175 221° Southwest 103 119 8,100  Level Cleveland Center
Sat 02:20:24 PM 41.3347 -81.9208 197° South 105 121 8,100  Level Cleveland Center
Sat 02:21:04 PM 41.3178 -81.9386 218° Southwest 105 121 8,100  Level Cleveland Center
Sat 02:21:25 PM 41.3108 -81.9414 197° South 103 119 8,100  Level Cleveland Center
Sat 02:22:04 PM 41.2950 -81.9597 221° Southwest 103 119 8,100  Level Cleveland Center
Sat 02:22:27 PM 41.2875 -81.9653 209° Southwest 103 119 8,100  Level Cleveland Center
Sat 02:23:05 PM 41.2694 -81.9836 217° Southwest 106 122 8,100  Level Cleveland Center
Sat 02:23:29 PM 41.2586 -81.9897 203° Southwest 105 121 8,100  Level Cleveland Center
Sat 02:24:05 PM 41.2444 -82.0044 218° Southwest 106 122 8,100  Level Cleveland Center
Sat 02:24:31 PM 41.2353 -82.0128 214° Southwest 103 119 8,100  Level Cleveland Center
Sat 02:25:33 PM 41.2119 -82.0356 216° Southwest 104 120 8,100  Level Cleveland Center
Sat 02:26:35 PM 41.1875 -82.0558 212° Southwest 102 117 8,100  Level Cleveland Center
Sat 02:27:37 PM 41.1597 -82.0756 208° Southwest 110 127 8,100  Level Cleveland Center
Sat 02:28:38 PM 41.1344 -82.0997 216° Southwest 112 129 8,100  Level Cleveland Center
Sat 02:29:40 PM 41.1078 -82.1242 215° Southwest 115 132 8,100  Level Cleveland Center
Sat 02:30:42 PM 41.0803 -82.1467 212° Southwest 115 132 8,100  Level Cleveland Center
Sat 02:31:44 PM 41.0497 -82.1750 215° Southwest 114 131 8,100  Level Cleveland Center
Sat 02:32:46 PM 41.0211 -82.1994 213° Southwest 119 137 8,100  Level Cleveland Center
Sat 02:33:47 PM 40.9942 -82.2244 215° Southwest 119 137 8,100  Level Cleveland Center
Sat 02:34:49 PM 40.9667 -82.2486 214° Southwest 117 135 8,100  Level Cleveland Center
Sat 02:35:51 PM 40.9400 -82.2689 210° Southwest 112 129 8,100  Level Cleveland Center
Sat 02:36:53 PM 40.9156 -82.2922 216° Southwest 108 124 8,100  Level Cleveland Center
Sat 02:37:54 PM 40.8900 -82.3164 216° Southwest 112 129 8,100  Level Cleveland Center
Sat 02:38:56 PM 40.8617 -82.3378 210° Southwest 116 133 8,100  Level Cleveland Center
Sat 02:39:58 PM 40.8358 -82.3606 214° Southwest 112 129 8,100  Level Cleveland Center
Sat 02:41:00 PM 40.8058 -82.3897 216° Southwest 113 130 8,100  Level Cleveland Center
Sat 02:42:02 PM 40.7783 -82.4119 211° Southwest 114 131 8,100 50 Level Cleveland Center
Sat 02:43:00 PM 40.7564 -82.4331 216° Southwest 115 132 8,200 50 Climbing Indianapolis Center
Sat 02:44:02 PM 40.7264 -82.4614 216° Southwest 114 131 8,200  Level Indianapolis Center
Sat 02:45:04 PM 40.6981 -82.4842 211° Southwest 117 135 8,200  Level Indianapolis Center
Sat 02:46:05 PM 40.6728 -82.5067 214° Southwest 111 128 8,200  Level Indianapolis Center
Sat 02:47:07 PM 40.6486 -82.5297 216° Southwest 107 123 8,200  Level Indianapolis Center
Sat 02:48:08 PM 40.6222 -82.5525 213° Southwest 110 127 8,200  Level Indianapolis Center
Sat 02:49:10 PM 40.5967 -82.5750 214° Southwest 110 127 8,200  Level Indianapolis Center
Sat 02:50:12 PM 40.5714 -82.5983 215° Southwest 110 127 8,200 -49 Level Indianapolis Center
Sat 02:51:13 PM 40.5436 -82.6219 213° Southwest 115 132 8,100 -49 Descending Indianapolis Center
Sat 02:52:15 PM 40.5164 -82.6439 212° Southwest 114 131 8,100  Level Indianapolis Center
Sat 02:53:16 PM 40.4894 -82.6675 214° Southwest 115 132 8,100 -54 Level Indianapolis Center
Sat 02:54:06 PM 40.4631 -82.6956 219° Southwest 117 135 8,000  Descending Indianapolis Center
Sat 02:54:18 PM 40.4581 -82.6958 182° South 116 133 8,100  Climbing Indianapolis Center
Sat 02:55:00 PM 40.4381 -82.7161 218° Southwest 120 138 8,000  Descending Indianapolis Center
Sat 02:55:20 PM 40.4297 -82.7194 197° South 119 137 8,100  Climbing Indianapolis Center
Sat 02:56:01 PM 40.4108 -82.7394 219° Southwest 118 136 8,000  Descending Indianapolis Center
Sat 02:56:21 PM 40.4036 -82.7450 210° Southwest 116 133 8,100  Climbing Indianapolis Center
Sat 02:57:02 PM 40.3853 -82.7656 221° Southwest 113 130 8,000  Descending Indianapolis Center
Sat 02:57:23 PM 40.3781 -82.7703 206° Southwest 115 132 8,100  Climbing Indianapolis Center
Sat 02:58:08 PM 40.3556 -82.7911 215° Southwest 118 136 8,000  Descending Indianapolis Center
Sat 02:58:25 PM 40.3489 -82.7928 191° South 119 137 8,100  Climbing Indianapolis Center
Sat 02:59:03 PM 40.3286 -82.8114 215° Southwest 123 142 8,000 -98 Descending Indianapolis Center
Sat 02:59:26 PM 40.3189 -82.8164 201° Southwest 122 140 8,000  Level Indianapolis Center
Sat 03:00:04 PM 40.3011 -82.8344 218° Southwest 121 139 8,000  Level Indianapolis Center
Sat 03:00:28 PM 40.2903 -82.8392 198° South 121 139 8,000  Level Indianapolis Center
Sat 03:01:04 PM 40.2714 -82.8600 220° Southwest 120 138 8,000  Level Indianapolis Center
Sat 03:01:30 PM 40.2631 -82.8656 207° Southwest 121 139 8,000  Level Indianapolis Center
Sat 03:01:59 PM 40.2464 -82.8806 214° Southwest 121 139 8,000  Level Indianapolis Center
Sat 03:02:31 PM 40.2358 -82.8889 211° Southwest 119 137 8,000  Level Indianapolis Center
Sat 03:03:00 PM 40.2189 -82.9064 218° Southwest 120 138 8,000  Level Indianapolis Center
Sat 03:03:33 PM 40.2075 -82.9139 207° Southwest 122 140 8,000  Level Indianapolis Center
Sat 03:04:00 PM 40.1894 -82.9289 212° Southwest 122 140 8,000  Level Indianapolis Center
Sat 03:04:35 PM 40.1733 -82.9436 215° Southwest 123 142 8,000  Level Indianapolis Center
Sat 03:05:13 PM 40.1547 -82.9617 217° Southwest 123 142 8,000  Level Indianapolis Center
Sat 03:05:37 PM 40.1450 -82.9686 209° Southwest 123 142 8,000  Level Indianapolis Center
Sat 03:06:08 PM 40.1275 -82.9819 210° Southwest 125 144 8,000  Level Indianapolis Center
Sat 03:06:38 PM 40.1156 -82.9942 218° Southwest 127 146 8,000  Level Indianapolis Center
Sat 03:07:20 PM 40.0933 -83.0119 211° Southwest 125 144 8,000  Level Indianapolis Center
Sat 03:07:40 PM 40.0867 -83.0186 217° Southwest 125 144 8,000  Level Indianapolis Center
Sat 03:08:09 PM 40.0703 -83.0331 214° Southwest 122 140 8,000  Level Indianapolis Center
Sat 03:08:42 PM 40.0589 -83.0433 215° Southwest 122 140 8,000  Level Indianapolis Center
Sat 03:09:10 PM 40.0406 -83.0583 212° Southwest 124 143 8,000  Level Indianapolis Center
Sat 03:09:44 PM 40.0292 -83.0672 211° Southwest 125 144 8,000  Level Indianapolis Center
Sat 03:10:11 PM 40.0108 -83.0833 214° Southwest 127 146 8,000  Level Indianapolis Center
Sat 03:10:46 PM 39.9992 -83.0925 211° Southwest 128 147 8,000  Level Indianapolis Center
Sat 03:11:12 PM 39.9789 -83.1083 211° Southwest 130 150 8,000  Level Indianapolis Center
Sat 03:11:47 PM 39.9625 -83.1236 216° Southwest 130 150 8,000  Level Indianapolis Center
Sat 03:12:12 PM 39.9514 -83.1339 215° Southwest 127 146 8,000  Level Indianapolis Center
Sat 03:12:49 PM 39.9328 -83.1494 213° Southwest 129 148 8,000  Level Indianapolis Center
Sat 03:13:13 PM 39.9217 -83.1589 213° Southwest 130 150 8,000  Level Indianapolis Center
Sat 03:13:51 PM 39.9022 -83.1750 212° Southwest 131 151 8,000  Level Indianapolis Center
Sat 03:14:14 PM 39.8894 -83.1864 214° Southwest 128 147 8,000  Level Indianapolis Center
Sat 03:14:53 PM 39.8725 -83.2014 214° Southwest 129 148 8,000  Level Indianapolis Center
Sat 03:15:21 PM 39.8550 -83.2164 213° Southwest 130 150 8,000  Level Indianapolis Center
Sat 03:15:55 PM 39.8419 -83.2267 211° Southwest 129 148 8,000  Level Indianapolis Center
Sat 03:16:22 PM 39.8253 -83.2414 214° Southwest 132 152 8,000  Level Indianapolis Center
Sat 03:16:56 PM 39.8117 -83.2531 213° Southwest 131 151 8,000  Level Indianapolis Center
Sat 03:17:23 PM 39.7956 -83.2664 212° Southwest 131 151 8,000  Level Indianapolis Center
Sat 03:17:58 PM 39.7806 -83.2783 211° Southwest 131 151 8,000  Level Indianapolis Center
Sat 03:18:30 PM 39.7589 -83.2958 212° Southwest 128 147 8,000  Level Indianapolis Center
Sat 03:19:00 PM 39.7506 -83.3039 217° Southwest 129 148 8,000 -98 Level Indianapolis Center
Sat 03:19:31 PM 39.7314 -83.3214 215° Southwest 127 146 7,900  Descending Indianapolis Center
Sat 03:20:02 PM 39.7150 -83.3344 212° Southwest 127 146 8,000 100 Climbing Indianapolis Center
Sat 03:20:31 PM 39.7014 -83.3464 214° Southwest 127 146 8,000  Level Indianapolis Center
Sat 03:21:04 PM 39.6844 -83.3597 211° Southwest 129 148 8,000  Level Indianapolis Center
Sat 03:21:32 PM 39.6694 -83.3736 215° Southwest 131 151 8,000  Level Indianapolis Center
Sat 03:22:05 PM 39.6542 -83.3869 214° Southwest 131 151 8,000  Level Indianapolis Center
Sat 03:22:33 PM 39.6392 -83.4014 217° Southwest 132 152 8,000  Level Indianapolis Center
Sat 03:23:07 PM 39.6244 -83.4136 213° Southwest 130 150 8,000  Level Indianapolis Center
Sat 03:23:34 PM 39.6072 -83.4286 214° Southwest 132 152 8,000  Level Indianapolis Center
Sat 03:24:09 PM 39.5931 -83.4403 212° Southwest 132 152 8,000  Level Indianapolis Center
Sat 03:24:35 PM 39.5753 -83.4531 209° Southwest 134 154 8,000  Level Indianapolis Center
Sat 03:25:11 PM 39.5614 -83.4647 213° Southwest 132 152 8,000  Level Indianapolis Center
Sat 03:25:36 PM 39.5433 -83.4778 209° Southwest 132 152 8,000  Level Indianapolis Center
Sat 03:26:13 PM 39.5297 -83.4900 215° Southwest 133 153 8,000  Level Indianapolis Center
Sat 03:26:37 PM 39.5133 -83.5053 216° Southwest 130 150 8,000  Level Indianapolis Center
Sat 03:27:14 PM 39.4925 -83.5200 209° Southwest 131 151 8,000  Level Indianapolis Center
Sat 03:27:37 PM 39.4814 -83.5297 214° Southwest 132 152 8,000  Level Indianapolis Center
Sat 03:28:16 PM 39.4617 -83.5458 212° Southwest 132 152 8,000  Level Indianapolis Center
Sat 03:28:32 PM 39.4539 -83.5522 212° Southwest 130 150 8,000 97 Level Indianapolis Center
Sat 03:29:18 PM 39.4322 -83.5711 214° Southwest 128 147 8,100  Climbing Indianapolis Center
Sat 03:29:39 PM 39.4194 -83.5817 213° Southwest 130 150 8,000  Descending Indianapolis Center
Sat 03:30:20 PM 39.4017 -83.5969 214° Southwest 130 150 8,100  Climbing Indianapolis Center
Sat 03:30:40 PM 39.3872 -83.6089 213° Southwest 132 152 8,000  Descending Indianapolis Center
Sat 03:31:22 PM 39.3706 -83.6228 213° Southwest 132 152 8,100  Climbing Indianapolis Center
Sat 03:31:35 PM 39.3594 -83.6339 218° Southwest 135 155 8,000  Descending Indianapolis Center
Sat 03:32:23 PM 39.3389 -83.6489 209° Southwest 134 154 8,100 55 Climbing Indianapolis Center
Sat 03:33:25 PM 39.3075 -83.6753 213° Southwest 134 154 8,100  Level Indianapolis Center
Sat 03:34:27 PM 39.2706 -83.7075 214° Southwest 133 153 8,100 -48 Level Indianapolis Center
Sat 03:35:29 PM 39.2397 -83.7336 213° Southwest 133 153 8,000 -48 Descending Indianapolis Center
Sat 03:36:31 PM 39.2072 -83.7594 212° Southwest 135 155 8,000 49 Level Indianapolis Center
Sat 03:37:32 PM 39.1756 -83.7833 210° Southwest 134 154 8,100 49 Climbing Indianapolis Center
Sat 03:38:34 PM 39.1461 -83.8103 215° Southwest 131 151 8,100  Level Indianapolis Center
Sat 03:39:36 PM 39.1139 -83.8356 211° Southwest 135 155 8,100  Level Indianapolis Center
Sat 03:40:38 PM 39.0825 -83.8619 213° Southwest 134 154 8,100  Level Indianapolis Center
Sat 03:41:40 PM 39.0444 -83.8928 212° Southwest 135 155 8,100  Level Indianapolis Center
Sat 03:42:41 PM 39.0142 -83.9194 214° Southwest 134 154 8,100  Level Indianapolis Center
Sat 03:43:43 PM 38.9839 -83.9447 213° Southwest 131 151 8,100  Level Indianapolis Center
Sat 03:44:45 PM 38.9511 -83.9694 210° Southwest 135 155 8,100  Level Indianapolis Center
Sat 03:45:47 PM 38.9192 -83.9958 213° Southwest 136 157 8,100 48 Level Indianapolis Center
Sat 03:46:49 PM 38.8858 -84.0219 211° Southwest 137 158 8,200  Climbing Indianapolis Center
Sat 03:47:50 PM 38.8550 -84.0483 214° Southwest 136 157 8,100 -49 Descending Indianapolis Center
Sat 03:48:52 PM 38.8183 -84.0803 214° Southwest 134 154 8,100  Level Indianapolis Center
Sat 03:49:54 PM 38.7869 -84.1053 212° Southwest 133 153 8,100 49 Level Indianapolis Center
Sat 03:50:55 PM 38.7550 -84.1319 213° Southwest 135 155 8,200  Climbing Indianapolis Center
Sat 03:51:57 PM 38.7239 -84.1603 215° Southwest 136 157 8,100 -48 Descending Indianapolis Center
Sat 03:52:59 PM 38.6911 -84.1847 210° Southwest 137 158 8,100  Level Indianapolis Center
Sat 03:54:00 PM 38.6594 -84.2106 213° Southwest 135 155 8,100  Level Indianapolis Center
Sat 03:55:02 PM 38.6228 -84.2417 214° Southwest 134 154 8,100  Level Indianapolis Center
Sat 03:56:03 PM 38.5931 -84.2658 212° Southwest 129 148 8,100 -49 Level Indianapolis Center
Sat 03:57:05 PM 38.5614 -84.2922 213° Southwest 132 152 8,000 -49 Descending Indianapolis Center
Sat 03:58:06 PM 38.5286 -84.3158 209° Southwest 136 157 8,000  Level Indianapolis Center
Sat 03:59:08 PM 38.4967 -84.3397 210° Southwest 133 153 8,000  Level Indianapolis Center
Sat 04:00:10 PM 38.4678 -84.3625 212° Southwest 126 145 8,000  Level Indianapolis Center
Sat 04:01:11 PM 38.4358 -84.3883 212° Southwest 132 152 8,000  Level Indianapolis Center
Sat 04:02:13 PM 38.3986 -84.4175 212° Southwest 134 154 8,000  Level Indianapolis Center
Sat 04:03:14 PM 38.3669 -84.4436 213° Southwest 135 155 8,000  Level Indianapolis Center
Sat 04:04:16 PM 38.3361 -84.4686 212° Southwest 130 150 8,000  Level Indianapolis Center
Sat 04:05:17 PM 38.3053 -84.4944 213° Southwest 134 154 8,000  Level Indianapolis Center
Sat 04:06:19 PM 38.2747 -84.5181 211° Southwest 131 151 8,000  Level Indianapolis Center
Sat 04:07:20 PM 38.2447 -84.5414 211° Southwest 129 148 8,000  Level Indianapolis Center
Sat 04:08:22 PM 38.2142 -84.5669 213° Southwest 129 148 8,000  Level Indianapolis Center
Sat 04:09:24 PM 38.1778 -84.5950 211° Southwest 130 150 8,000  Level Indianapolis Center
Sat 04:10:25 PM 38.1475 -84.6206 214° Southwest 130 150 8,000  Level Indianapolis Center
Sat 04:11:26 PM 38.1169 -84.6458 213° Southwest 130 150 8,000  Level Indianapolis Center
Sat 04:12:28 PM 38.0853 -84.6694 210° Southwest 131 151 8,000  Level Indianapolis Center
Sat 04:13:29 PM 38.0531 -84.6939 211° Southwest 132 152 8,000  Level Indianapolis Center
Sat 04:14:31 PM 38.0219 -84.7203 214° Southwest 133 153 8,000 49 Level Indianapolis Center
Sat 04:15:32 PM 37.9908 -84.7456 213° Southwest 133 153 8,100  Climbing Indianapolis Center
Sat 04:16:33 PM 37.9600 -84.7697 212° Southwest 133 153 8,000 -49 Descending Indianapolis Center
Sat 04:17:35 PM 37.9228 -84.7981 211° Southwest 134 154 8,000  Level Indianapolis Center
Sat 04:18:36 PM 37.8931 -84.8222 213° Southwest 130 150 8,000  Level Indianapolis Center
Sat 04:19:38 PM 37.8597 -84.8475 211° Southwest 135 155 8,000  Level Indianapolis Center
Sat 04:20:39 PM 37.8275 -84.8711 210° Southwest 135 155 8,000  Level Indianapolis Center
Sat 04:21:40 PM 37.7972 -84.8953 212° Southwest 132 152 8,000  Level Indianapolis Center
Sat 04:22:42 PM 37.7636 -84.9231 213° Southwest 138 159 8,000  Level Indianapolis Center
Sat 04:23:43 PM 37.7347 -84.9467 213° Southwest 130 150 8,000  Level Indianapolis Center
Sat 04:24:44 PM 37.7006 -84.9722 211° Southwest 137 158 8,000  Level Indianapolis Center
Sat 04:25:46 PM 37.6694 -84.9967 212° Southwest 135 155 8,000  Level Indianapolis Center
Sat 04:26:47 PM 37.6331 -85.0264 213° Southwest 133 153 8,000  Level Indianapolis Center
Sat 04:27:48 PM 37.6017 -85.0517 213° Southwest 134 154 8,000 49 Level Indianapolis Center
Sat 04:28:50 PM 37.5703 -85.0775 213° Southwest 134 154 8,100 49 Climbing Indianapolis Center
Sat 04:29:51 PM 37.5378 -85.1019 211° Southwest 135 155 8,100  Level Indianapolis Center
Sat 04:30:52 PM 37.5053 -85.1264 211° Southwest 136 157 8,100  Level Indianapolis Center
Sat 04:31:54 PM 37.4739 -85.1519 213° Southwest 134 154 8,100  Level Indianapolis Center
Sat 04:32:55 PM 37.4414 -85.1772 212° Southwest 136 157 8,100 -49 Level Indianapolis Center
Sat 04:33:56 PM 37.4097 -85.2011 211° Southwest 134 154 8,000 -49 Descending Indianapolis Center
Sat 04:34:58 PM 37.3706 -85.2322 212° Southwest 139 160 8,000  Level Indianapolis Center
Sat 04:35:59 PM 37.3389 -85.2569 212° Southwest 137 158 8,000  Level Indianapolis Center
Sat 04:37:01 PM 37.3069 -85.2811 211° Southwest 134 154 8,000  Level Indianapolis Center
Sat 04:38:02 PM 37.2750 -85.3072 213° Southwest 135 155 8,000  Level Indianapolis Center
Sat 04:39:03 PM 37.2419 -85.3322 211° Southwest 138 159 8,000  Level Indianapolis Center
Sat 04:40:05 PM 37.2106 -85.3581 213° Southwest 137 158 8,000 -49 Level Indianapolis Center
Sat 04:41:06 PM 37.1761 -85.3844 211° Southwest 141 162 7,900  Descending Indianapolis Center
Sat 04:42:07 PM 37.1408 -85.4108 211° Southwest 145 167 8,000 49 Climbing Indianapolis Center
Sat 04:43:09 PM 37.1050 -85.4394 212° Southwest 145 167 8,000 -49 Level Indianapolis Center
Sat 04:44:10 PM 37.0681 -85.4675 211° Southwest 141 162 7,900  Descending Indianapolis Center
Sat 04:45:11 PM 37.0350 -85.4933 212° Southwest 140 161 8,000 49 Climbing Indianapolis Center
Sat 04:46:13 PM 37.0036 -85.5189 213° Southwest 138 159 8,000 -49 Level Indianapolis Center
Sat 04:47:14 PM 36.9692 -85.5439 210° Southwest 139 160 7,900 -49 Descending Indianapolis Center
Sat 04:48:15 PM 36.9347 -85.5703 211° Southwest 143 165 7,900  Level Indianapolis Center
Sat 04:49:17 PM 36.9000 -85.5967 211° Southwest 144 166 7,900  Level Indianapolis Center
Sat 04:50:18 PM 36.8664 -85.6239 213° Southwest 143 165 7,900  Level Indianapolis Center
Sat 04:51:20 PM 36.8314 -85.6494 210° Southwest 144 166 7,900 -195 Level Indianapolis Center
Sat 04:52:21 PM 36.7967 -85.6789 214° Southwest 147 169 7,500 -390 Descending Indianapolis Center
Sat 04:53:23 PM 36.7561 -85.7081 210° Southwest 158 182 7,100 -488 Descending Indianapolis Center
Sat 04:54:24 PM 36.7175 -85.7361 210° Southwest 160 184 6,500 -541 Descending Indianapolis Center
Sat 04:55:25 PM 36.6808 -85.7644 212° Southwest 157 181 6,000 -195 Descending Indianapolis Center
Sat 04:56:27 PM 36.6436 -85.7933 212° Southwest 139 160 6,100 49 Climbing Indianapolis Center
Sat 04:57:28 PM 36.6156 -85.8178 215° Southwest 128 147 6,100  Level Indianapolis Center
Sat 04:59:22 PM 36.5667 -85.8500 208° Southwest 128 147 6,100  Level Nashville TRACON
Sat 05:00:16 PM 36.5333 -85.8833 219° Southwest 128 147 6,100  Level Nashville TRACON
Sat 05:01:16 PM 36.5000 -85.9000 202° Southwest 125 144 6,100  Level Nashville TRACON
Sat 05:02:16 PM 36.4667 -85.9167 202° Southwest 127 146 6,100  Level Nashville TRACON
Sat 05:03:16 PM 36.4500 -85.9500 238° Southwest 128 147 6,100  Level Nashville TRACON
Sat 05:04:16 PM 36.4167 -85.9667 202° Southwest 134 154 6,100  Level Nashville TRACON
Sat 05:05:22 PM 36.3739 -86.0011 213° Southwest 137 158 6,100  Level Memphis Center
Sat 05:06:22 PM 36.3475 -86.0206 211° Southwest 137 158 6,100  Level Memphis Center
Sat 05:07:22 PM 36.3169 -86.0453 213° Southwest 137 158 6,100  Level Memphis Center
Sat 05:08:22 PM 36.2844 -86.0703 212° Southwest 137 158 6,100  Level Memphis Center
Sat 05:09:22 PM 36.2522 -86.0950 212° Southwest 137 158 6,100  Level Memphis Center
Sat 05:10:22 PM 36.2217 -86.1197 213° Southwest 137 158 6,100 -200 Level Memphis Center
Sat 05:11:22 PM 36.1869 -86.1447 210° Southwest 137 158 5,700 -480 Descending Memphis Center
Sat 05:13:17 PM 36.1167 -86.2000 212° Southwest 155 178 4,700 -522 Descending Nashville TRACON

Login

Don't have an account? Register now (free) for customized features, flight alerts, and more!